This is the latest recevied weather packets stored in our database for station/object IR1ZYZ-3. If no packets are shown the sender has not sent any weather packets the latest 10 day(s).
| Time | Temp. | Humidity | Pressure | Rain* | Wind** | Luminosity | Snow |
|---|---|---|---|---|---|---|---|
| 1777681447 | 11.11° C | 76% | 1027.4 hPa | - | - | - | - |
| 1777680842 | 11.11° C | 73% | 1027.4 hPa | - | - | - | - |
| 1777680237 | 11.67° C | 71% | 1027.4 hPa | - | - | - | - |
| 1777679632 | 11.67° C | 70% | 1027.5 hPa | - | - | - | - |
| 1777679026 | 11.67° C | 69% | 1027.3 hPa | - | - | - | - |
| 1777678421 | 12.22° C | 66% | 1027.4 hPa | - | - | - | - |
| 1777677815 | 12.22° C | 66% | 1027.3 hPa | - | - | - | - |
| 1777677210 | 12.78° C | 67% | 1027.1 hPa | - | - | - | - |
| 1777676605 | 12.22° C | 71% | 1027 hPa | - | - | - | - |
| 1777675999 | 11.67° C | 73% | 1027.1 hPa | - | - | - | - |
| 1777675394 | 12.22° C | 71% | 1027.1 hPa | - | - | - | - |
| 1777674788 | 12.22° C | 74% | 1027 hPa | - | - | - | - |
| 1777674184 | 12.22° C | 73% | 1027 hPa | - | - | - | - |
| 1777673578 | 12.22° C | 76% | 1027.1 hPa | - | - | - | - |
| 1777672973 | 11.67° C | 77% | 1027 hPa | - | - | - | - |
| 1777672369 | 11.67° C | 77% | 1027 hPa | - | - | - | - |
| 1777671763 | 11.67° C | 81% | 1027 hPa | - | - | - | - |
| 1777671158 | 12.22° C | 75% | 1026.7 hPa | - | - | - | - |
| 1777670554 | 12.78° C | 73% | 1026.6 hPa | - | - | - | - |
| 1777669949 | 12.78° C | 75% | 1026.6 hPa | - | - | - | - |
| 1777669345 | 12.22° C | 78% | 1026.6 hPa | - | - | - | - |
| 1777668740 | 12.22° C | 81% | 1026.7 hPa | - | - | - | - |
| 1777668135 | 12.22° C | 80% | 1026.4 hPa | - | - | - | - |
| 1777667530 | 12.78° C | 80% | 1026.4 hPa | - | - | - | - |
| 1777666926 | 12.78° C | 79% | 1026.3 hPa | - | - | - | - |
* Rain since midnight (hover to see other rain measurements)
** Current wind speed in m/s (hover to see current wind gust speed)